THY7MN LTAI-LTFM
Flight info
| Callsign | THY7MN |
|---|---|
| Flight time | 0h 59m |
| Altitude | 40000 |
| Route | EKSEN1K/18L EKSEN UM855 SISPI |
| Aircraft | A359/H-SDE2E3GHIJ3J4J5LM1ORWXY/LB1D1 |
Departure
| Time | 2026-02-17 14:23 |
|---|---|
| Airport | Antalya International Airport (LTAI) |
Arrival
| Time | 2026-02-17 15:23 |
|---|---|
| Airport | İstanbul Airport (LTFM) |
| Time | Latitude | Longitude | Altitude | Speed | Heading |
|---|---|---|---|---|---|
| 2026-02-17 13:48 | 36.91020 | 30.79767 | 197 ft | 0 kts | 276° |
| 2026-02-17 14:13 | 36.91019 | 30.79769 | 197 ft | 1 kts | 276° |
| 2026-02-17 14:13 | 36.91018 | 30.79791 | 205 ft | 3 kts | 272° |
| 2026-02-17 14:13 | 36.91017 | 30.79816 | 197 ft | 3 kts | 275° |
| 2026-02-17 14:14 | 36.91016 | 30.79835 | 197 ft | 3 kts | 288° |
| 2026-02-17 14:14 | 36.91008 | 30.79850 | 207 ft | 3 kts | 345° |
| 2026-02-17 14:14 | 36.90988 | 30.79852 | 211 ft | 3 kts | 6° |
| 2026-02-17 14:15 | 36.90955 | 30.79846 | 197 ft | 0 kts | 6° |
| 2026-02-17 14:19 | 36.90957 | 30.79847 | 207 ft | 1 kts | 6° |
| 2026-02-17 14:19 | 36.90977 | 30.79849 | 197 ft | 4 kts | 6° |
| 2026-02-17 14:19 | 36.91018 | 30.79855 | 210 ft | 7 kts | 7° |
| 2026-02-17 14:20 | 36.91079 | 30.79865 | 197 ft | 10 kts | 7° |
| 2026-02-17 14:20 | 36.91161 | 30.79877 | 208 ft | 13 kts | 7° |
| 2026-02-17 14:20 | 36.91205 | 30.79842 | 208 ft | 7 kts | 283° |
| 2026-02-17 14:20 | 36.91207 | 30.79762 | 209 ft | 11 kts | 272° |
| 2026-02-17 14:21 | 36.91233 | 30.79675 | 204 ft | 11 kts | 323° |
| 2026-02-17 14:21 | 36.91314 | 30.79666 | 208 ft | 13 kts | 3° |
| 2026-02-17 14:21 | 36.91412 | 30.79678 | 204 ft | 15 kts | 6° |
| 2026-02-17 14:21 | 36.91513 | 30.79664 | 208 ft | 13 kts | 317° |
| 2026-02-17 14:22 | 36.91537 | 30.79554 | 207 ft | 15 kts | 276° |
| 2026-02-17 14:22 | 36.91422 | 30.79462 | 209 ft | 25 kts | 186° |
| 2026-02-17 14:23 | 36.90171 | 30.79288 | 213 ft | 153 kts | 186° |
| 2026-02-17 14:23 | 36.89062 | 30.79139 | 810 ft | 159 kts | 180° |
| 2026-02-17 14:23 | 36.87995 | 30.78911 | 1671 ft | 156 kts | 190° |
| 2026-02-17 14:23 | 36.86917 | 30.78416 | 1982 ft | 174 kts | 196° |
| 2026-02-17 14:24 | 36.85732 | 30.77823 | 2318 ft | 191 kts | 197° |
| 2026-02-17 14:24 | 36.84470 | 30.77197 | 2884 ft | 197 kts | 199° |
| 2026-02-17 14:24 | 36.83200 | 30.76574 | 3549 ft | 197 kts | 200° |
| 2026-02-17 14:24 | 36.81899 | 30.75959 | 4155 ft | 202 kts | 200° |
| 2026-02-17 14:25 | 36.80578 | 30.75345 | 4803 ft | 203 kts | 200° |
| 2026-02-17 14:25 | 36.79253 | 30.74709 | 5408 ft | 205 kts | 204° |
| 2026-02-17 14:25 | 36.78073 | 30.73711 | 5985 ft | 208 kts | 224° |
| 2026-02-17 14:25 | 36.77528 | 30.72725 | 6395 ft | 212 kts | 240° |
| 2026-02-17 14:26 | 36.77197 | 30.70852 | 6692 ft | 235 kts | 264° |
| 2026-02-17 14:26 | 36.77329 | 30.68736 | 6992 ft | 254 kts | 273° |
| 2026-02-17 14:26 | 36.77913 | 30.66587 | 7447 ft | 271 kts | 292° |
| 2026-02-17 14:27 | 36.81027 | 30.63791 | 8558 ft | 299 kts | 345° |
| 2026-02-17 14:27 | 36.83132 | 30.63769 | 9194 ft | 305 kts | 0° |
| 2026-02-17 14:27 | 36.85247 | 30.64048 | 9806 ft | 309 kts | 2° |
| 2026-02-17 14:27 | 36.87410 | 30.64358 | 10284 ft | 318 kts | 1° |
| 2026-02-17 14:28 | 36.89663 | 30.64675 | 10546 ft | 333 kts | 4° |
| 2026-02-17 14:28 | 36.91937 | 30.65562 | 10702 ft | 356 kts | 25° |
| 2026-02-17 14:28 | 36.93900 | 30.67526 | 10898 ft | 371 kts | 49° |
| 2026-02-17 14:28 | 36.95369 | 30.70195 | 11347 ft | 374 kts | 55° |
| 2026-02-17 14:29 | 36.97173 | 30.72557 | 11830 ft | 380 kts | 32° |
| 2026-02-17 14:29 | 36.99599 | 30.73840 | 12285 ft | 380 kts | 7° |
| 2026-02-17 14:29 | 37.02227 | 30.74280 | 12796 ft | 382 kts | 0° |
| 2026-02-17 14:29 | 37.04883 | 30.74579 | 13345 ft | 383 kts | 359° |
| 2026-02-17 14:30 | 37.07554 | 30.74856 | 13783 ft | 388 kts | 359° |
| 2026-02-17 14:30 | 37.10252 | 30.75141 | 14261 ft | 390 kts | 358° |
| 2026-02-17 14:31 | 37.18311 | 30.74099 | 15631 ft | 392 kts | 345° |
| 2026-02-17 14:31 | 37.21017 | 30.73573 | 16105 ft | 394 kts | 345° |
| 2026-02-17 14:31 | 37.23738 | 30.73050 | 16563 ft | 397 kts | 345° |
| 2026-02-17 14:31 | 37.26474 | 30.72529 | 17021 ft | 399 kts | 345° |
| 2026-02-17 14:32 | 37.29232 | 30.72010 | 17449 ft | 402 kts | 345° |
| 2026-02-17 14:32 | 37.31977 | 30.71496 | 17843 ft | 405 kts | 345° |
| 2026-02-17 14:32 | 37.34773 | 30.70974 | 18254 ft | 408 kts | 345° |
| 2026-02-17 14:32 | 37.37586 | 30.70449 | 18664 ft | 410 kts | 345° |
| 2026-02-17 14:33 | 37.40431 | 30.70009 | 19033 ft | 415 kts | 349° |
| 2026-02-17 14:33 | 37.46241 | 30.69577 | 19734 ft | 421 kts | 351° |
| 2026-02-17 14:33 | 37.49183 | 30.69388 | 20088 ft | 424 kts | 351° |
| 2026-02-17 14:34 | 37.52126 | 30.69192 | 20473 ft | 426 kts | 351° |
| 2026-02-17 14:34 | 37.55091 | 30.68993 | 20853 ft | 427 kts | 351° |
| 2026-02-17 14:34 | 37.58066 | 30.68794 | 21214 ft | 429 kts | 351° |
| 2026-02-17 14:35 | 37.64071 | 30.68417 | 21881 ft | 435 kts | 351° |
| 2026-02-17 14:35 | 37.67104 | 30.68228 | 22218 ft | 436 kts | 351° |
| 2026-02-17 14:35 | 37.70146 | 30.68038 | 22533 ft | 439 kts | 351° |
| 2026-02-17 14:35 | 37.73206 | 30.67845 | 22858 ft | 442 kts | 351° |
| 2026-02-17 14:36 | 37.76284 | 30.67650 | 23192 ft | 444 kts | 351° |
| 2026-02-17 14:36 | 37.79377 | 30.67456 | 23511 ft | 446 kts | 351° |
| 2026-02-17 14:36 | 37.82485 | 30.67261 | 23828 ft | 448 kts | 351° |
| 2026-02-17 14:36 | 37.85604 | 30.67065 | 24116 ft | 450 kts | 351° |
| 2026-02-17 14:37 | 37.88737 | 30.66861 | 24413 ft | 451 kts | 350° |
| 2026-02-17 14:37 | 37.91869 | 30.66515 | 24690 ft | 452 kts | 347° |
| 2026-02-17 14:37 | 37.94995 | 30.66046 | 24973 ft | 454 kts | 346° |
| 2026-02-17 14:37 | 37.98135 | 30.65530 | 25288 ft | 456 kts | 346° |
| 2026-02-17 14:38 | 38.01288 | 30.65033 | 25601 ft | 458 kts | 346° |
| 2026-02-17 14:38 | 38.04463 | 30.64568 | 25944 ft | 460 kts | 347° |
| 2026-02-17 14:38 | 38.07652 | 30.64129 | 26252 ft | 463 kts | 347° |
| 2026-02-17 14:39 | 38.14096 | 30.63283 | 26888 ft | 468 kts | 347° |
| 2026-02-17 14:39 | 38.17341 | 30.62858 | 27199 ft | 470 kts | 347° |
| 2026-02-17 14:39 | 38.20601 | 30.62431 | 27514 ft | 472 kts | 347° |
| 2026-02-17 14:39 | 38.23873 | 30.62002 | 27833 ft | 475 kts | 347° |
| 2026-02-17 14:40 | 38.27178 | 30.61599 | 28131 ft | 480 kts | 350° |
| 2026-02-17 14:40 | 38.30527 | 30.61455 | 28467 ft | 483 kts | 352° |
| 2026-02-17 14:40 | 38.37277 | 30.61314 | 29084 ft | 488 kts | 353° |
| 2026-02-17 14:41 | 38.40694 | 30.61278 | 29414 ft | 491 kts | 353° |
| 2026-02-17 14:41 | 38.44112 | 30.61247 | 29745 ft | 493 kts | 353° |
| 2026-02-17 14:41 | 38.47555 | 30.61217 | 30067 ft | 496 kts | 353° |
| 2026-02-17 14:41 | 38.51014 | 30.61184 | 30396 ft | 498 kts | 353° |
| 2026-02-17 14:42 | 38.54488 | 30.61148 | 30691 ft | 501 kts | 353° |
| 2026-02-17 14:42 | 38.57987 | 30.61108 | 30980 ft | 504 kts | 353° |
| 2026-02-17 14:42 | 38.61505 | 30.61068 | 31270 ft | 507 kts | 352° |
| 2026-02-17 14:43 | 38.68583 | 30.60900 | 31871 ft | 507 kts | 347° |
| 2026-02-17 14:43 | 38.72040 | 30.60182 | 32131 ft | 501 kts | 337° |
| 2026-02-17 14:43 | 38.75301 | 30.58731 | 32329 ft | 494 kts | 328° |
| 2026-02-17 14:43 | 38.78431 | 30.56896 | 32511 ft | 495 kts | 325° |
| 2026-02-17 14:44 | 38.81519 | 30.54926 | 32743 ft | 496 kts | 324° |
| 2026-02-17 14:44 | 38.84587 | 30.52894 | 32980 ft | 496 kts | 323° |
| 2026-02-17 14:44 | 38.87649 | 30.50838 | 33208 ft | 498 kts | 323° |
| 2026-02-17 14:44 | 38.90721 | 30.48775 | 33384 ft | 501 kts | 323° |
| 2026-02-17 14:45 | 38.93818 | 30.46708 | 33611 ft | 502 kts | 323° |
| 2026-02-17 14:45 | 38.96908 | 30.44659 | 33692 ft | 493 kts | 323° |
| 2026-02-17 14:45 | 38.99917 | 30.42686 | 33684 ft | 479 kts | 323° |
| 2026-02-17 14:45 | 39.02868 | 30.40751 | 33684 ft | 473 kts | 323° |
| 2026-02-17 14:46 | 39.08716 | 30.36883 | 33694 ft | 473 kts | 323° |
| 2026-02-17 14:47 | 39.17485 | 30.31060 | 33695 ft | 474 kts | 323° |
| 2026-02-17 14:47 | 39.23317 | 30.27188 | 33688 ft | 474 kts | 323° |
| 2026-02-17 14:48 | 39.29182 | 30.23291 | 33693 ft | 475 kts | 323° |
| 2026-02-17 14:48 | 39.35053 | 30.19384 | 33690 ft | 475 kts | 323° |
| 2026-02-17 14:49 | 39.40928 | 30.15464 | 33698 ft | 475 kts | 323° |
| 2026-02-17 14:49 | 39.46825 | 30.11572 | 33651 ft | 478 kts | 325° |
| 2026-02-17 14:50 | 39.52931 | 30.08068 | 33629 ft | 482 kts | 328° |
| 2026-02-17 14:50 | 39.59113 | 30.04714 | 33615 ft | 481 kts | 328° |
| 2026-02-17 14:51 | 39.68364 | 29.99621 | 33615 ft | 481 kts | 328° |
| 2026-02-17 14:51 | 39.74515 | 29.96183 | 33608 ft | 481 kts | 328° |
| 2026-02-17 14:52 | 39.80695 | 29.92786 | 33621 ft | 482 kts | 328° |
| 2026-02-17 14:52 | 39.86862 | 29.89371 | 33622 ft | 482 kts | 328° |
| 2026-02-17 14:53 | 39.93254 | 29.86473 | 33579 ft | 496 kts | 340° |
| 2026-02-17 14:53 | 40.00056 | 29.84960 | 33563 ft | 496 kts | 343° |
| 2026-02-17 14:54 | 40.06878 | 29.83530 | 33557 ft | 496 kts | 343° |
| 2026-02-17 14:54 | 40.10270 | 29.82814 | 33449 ft | 491 kts | 343° |
| 2026-02-17 14:55 | 40.17056 | 29.81369 | 32389 ft | 493 kts | 343° |
| 2026-02-17 14:55 | 40.20434 | 29.80649 | 31769 ft | 491 kts | 343° |
| 2026-02-17 14:55 | 40.23800 | 29.79931 | 31144 ft | 490 kts | 344° |
| 2026-02-17 14:55 | 40.27153 | 29.79213 | 30517 ft | 489 kts | 344° |
| 2026-02-17 14:56 | 40.30506 | 29.78504 | 29898 ft | 487 kts | 346° |
| 2026-02-17 14:56 | 40.33893 | 29.78226 | 29265 ft | 490 kts | 358° |
| 2026-02-17 14:56 | 40.37256 | 29.78944 | 28696 ft | 490 kts | 13° |
| 2026-02-17 14:56 | 40.40383 | 29.80672 | 28111 ft | 488 kts | 28° |
| 2026-02-17 14:57 | 40.43209 | 29.83112 | 27551 ft | 484 kts | 33° |
| 2026-02-17 14:57 | 40.45949 | 29.85659 | 26989 ft | 481 kts | 31° |
| 2026-02-17 14:57 | 40.48893 | 29.87670 | 26418 ft | 475 kts | 16° |
| 2026-02-17 14:57 | 40.52076 | 29.88551 | 25857 ft | 465 kts | 358° |
| 2026-02-17 14:58 | 40.55277 | 29.88389 | 25260 ft | 457 kts | 348° |
| 2026-02-17 14:58 | 40.58418 | 29.87917 | 24683 ft | 453 kts | 347° |
| 2026-02-17 14:58 | 40.61519 | 29.87371 | 24114 ft | 447 kts | 343° |
| 2026-02-17 14:59 | 40.67213 | 29.84680 | 23084 ft | 427 kts | 329° |
| 2026-02-17 14:59 | 40.69912 | 29.83082 | 22580 ft | 422 kts | 329° |
| 2026-02-17 14:59 | 40.72569 | 29.81510 | 22110 ft | 415 kts | 329° |
| 2026-02-17 14:59 | 40.75181 | 29.79969 | 21719 ft | 408 kts | 329° |
| 2026-02-17 15:00 | 40.77746 | 29.78458 | 21316 ft | 400 kts | 329° |
| 2026-02-17 15:00 | 40.80244 | 29.76911 | 20915 ft | 390 kts | 324° |
| 2026-02-17 15:00 | 40.82379 | 29.74854 | 20524 ft | 373 kts | 307° |
| 2026-02-17 15:00 | 40.83967 | 29.72243 | 20108 ft | 360 kts | 297° |
| 2026-02-17 15:01 | 40.85358 | 29.69524 | 19706 ft | 354 kts | 295° |
| 2026-02-17 15:01 | 40.86701 | 29.66843 | 19302 ft | 348 kts | 295° |
| 2026-02-17 15:01 | 40.88032 | 29.64195 | 18902 ft | 343 kts | 295° |
| 2026-02-17 15:01 | 40.89330 | 29.61622 | 18504 ft | 338 kts | 296° |
| 2026-02-17 15:02 | 40.90628 | 29.59057 | 18102 ft | 334 kts | 296° |
| 2026-02-17 15:02 | 40.91926 | 29.56495 | 17698 ft | 329 kts | 295° |
| 2026-02-17 15:02 | 40.93176 | 29.54026 | 17300 ft | 325 kts | 295° |
| 2026-02-17 15:03 | 40.96296 | 29.49750 | 16635 ft | 333 kts | 320° |
| 2026-02-17 15:03 | 40.98294 | 29.48190 | 16316 ft | 332 kts | 322° |
| 2026-02-17 15:03 | 41.00301 | 29.46703 | 15994 ft | 330 kts | 323° |
| 2026-02-17 15:03 | 41.02327 | 29.45202 | 15660 ft | 329 kts | 322° |
| 2026-02-17 15:04 | 41.04321 | 29.43715 | 15347 ft | 327 kts | 323° |
| 2026-02-17 15:04 | 41.06296 | 29.42237 | 15012 ft | 326 kts | 322° |
| 2026-02-17 15:04 | 41.08265 | 29.40759 | 14686 ft | 325 kts | 323° |
| 2026-02-17 15:04 | 41.10227 | 29.39282 | 14367 ft | 323 kts | 323° |
| 2026-02-17 15:05 | 41.12165 | 29.37826 | 14032 ft | 318 kts | 323° |
| 2026-02-17 15:05 | 41.14049 | 29.36410 | 13705 ft | 312 kts | 322° |
| 2026-02-17 15:05 | 41.15925 | 29.34999 | 13392 ft | 307 kts | 322° |
| 2026-02-17 15:05 | 41.17787 | 29.33596 | 13060 ft | 302 kts | 322° |
| 2026-02-17 15:06 | 41.19605 | 29.32224 | 12726 ft | 298 kts | 322° |
| 2026-02-17 15:06 | 41.21394 | 29.30875 | 12387 ft | 293 kts | 322° |
| 2026-02-17 15:06 | 41.23160 | 29.29543 | 12073 ft | 291 kts | 322° |
| 2026-02-17 15:07 | 41.26660 | 29.26891 | 11420 ft | 289 kts | 322° |
| 2026-02-17 15:07 | 41.28401 | 29.25570 | 11098 ft | 288 kts | 322° |
| 2026-02-17 15:07 | 41.30105 | 29.24250 | 10793 ft | 286 kts | 320° |
| 2026-02-17 15:07 | 41.31710 | 29.22727 | 10464 ft | 282 kts | 314° |
| 2026-02-17 15:08 | 41.33249 | 29.21113 | 10128 ft | 282 kts | 314° |
| 2026-02-17 15:08 | 41.34787 | 29.19480 | 9805 ft | 283 kts | 314° |
| 2026-02-17 15:08 | 41.36327 | 29.17846 | 9480 ft | 283 kts | 314° |
| 2026-02-17 15:08 | 41.37864 | 29.16216 | 9143 ft | 283 kts | 314° |
| 2026-02-17 15:09 | 41.39406 | 29.14587 | 8814 ft | 283 kts | 314° |
| 2026-02-17 15:09 | 41.40947 | 29.12957 | 8502 ft | 282 kts | 315° |
| 2026-02-17 15:09 | 41.42481 | 29.11338 | 8176 ft | 281 kts | 314° |
| 2026-02-17 15:09 | 41.44009 | 29.09723 | 7861 ft | 280 kts | 314° |
| 2026-02-17 15:10 | 41.45531 | 29.08111 | 7511 ft | 278 kts | 314° |
| 2026-02-17 15:10 | 41.47044 | 29.06510 | 7205 ft | 277 kts | 315° |
| 2026-02-17 15:10 | 41.48042 | 29.05456 | 6986 ft | 276 kts | 315° |
| 2026-02-17 15:11 | 41.51024 | 29.02289 | 6339 ft | 272 kts | 314° |
| 2026-02-17 15:11 | 41.52504 | 29.00717 | 6006 ft | 271 kts | 314° |
| 2026-02-17 15:11 | 41.53972 | 28.99157 | 5677 ft | 270 kts | 314° |
| 2026-02-17 15:11 | 41.55430 | 28.97608 | 5362 ft | 266 kts | 315° |
| 2026-02-17 15:12 | 41.56866 | 28.96078 | 5027 ft | 262 kts | 314° |
| 2026-02-17 15:12 | 41.58119 | 28.94368 | 4712 ft | 253 kts | 298° |
| 2026-02-17 15:12 | 41.59032 | 28.92396 | 4386 ft | 247 kts | 292° |
| 2026-02-17 15:12 | 41.59865 | 28.90405 | 4091 ft | 243 kts | 292° |
| 2026-02-17 15:13 | 41.60686 | 28.88431 | 3988 ft | 243 kts | 292° |
| 2026-02-17 15:13 | 41.61511 | 28.86456 | 3993 ft | 244 kts | 292° |
| 2026-02-17 15:13 | 41.62337 | 28.84487 | 4000 ft | 243 kts | 292° |
| 2026-02-17 15:13 | 41.63145 | 28.82515 | 4002 ft | 241 kts | 289° |
| 2026-02-17 15:14 | 41.63583 | 28.80417 | 4008 ft | 229 kts | 264° |
| 2026-02-17 15:14 | 41.63235 | 28.78409 | 3989 ft | 219 kts | 235° |
| 2026-02-17 15:14 | 41.62258 | 28.76967 | 3995 ft | 206 kts | 211° |
| 2026-02-17 15:15 | 41.59664 | 28.75448 | 3990 ft | 205 kts | 190° |
| 2026-02-17 15:15 | 41.58256 | 28.75170 | 3990 ft | 204 kts | 182° |
| 2026-02-17 15:15 | 41.56831 | 28.75106 | 3991 ft | 205 kts | 179° |
| 2026-02-17 15:15 | 41.55440 | 28.75126 | 3986 ft | 194 kts | 177° |
| 2026-02-17 15:16 | 41.54105 | 28.75177 | 3980 ft | 191 kts | 176° |
| 2026-02-17 15:16 | 41.52772 | 28.75229 | 3985 ft | 191 kts | 177° |
| 2026-02-17 15:16 | 41.51443 | 28.75266 | 3985 ft | 192 kts | 178° |
| 2026-02-17 15:16 | 41.50111 | 28.75287 | 3987 ft | 191 kts | 178° |
| 2026-02-17 15:17 | 41.48784 | 28.75301 | 3995 ft | 187 kts | 178° |
| 2026-02-17 15:17 | 41.47519 | 28.75297 | 3977 ft | 179 kts | 179° |
| 2026-02-17 15:17 | 41.46294 | 28.75271 | 3743 ft | 174 kts | 178° |
| 2026-02-17 15:17 | 41.45105 | 28.75303 | 3481 ft | 173 kts | 176° |
| 2026-02-17 15:18 | 41.43896 | 28.75335 | 3234 ft | 174 kts | 177° |
| 2026-02-17 15:18 | 41.42685 | 28.75357 | 2991 ft | 173 kts | 177° |
| 2026-02-17 15:18 | 41.41504 | 28.75380 | 2761 ft | 165 kts | 176° |
| 2026-02-17 15:19 | 41.39306 | 28.75423 | 2339 ft | 153 kts | 177° |
| 2026-02-17 15:19 | 41.38243 | 28.75444 | 2137 ft | 152 kts | 176° |
| 2026-02-17 15:19 | 41.37183 | 28.75465 | 1941 ft | 151 kts | 176° |
| 2026-02-17 15:19 | 41.36149 | 28.75484 | 1729 ft | 146 kts | 176° |
| 2026-02-17 15:20 | 41.35161 | 28.75502 | 1538 ft | 138 kts | 176° |
| 2026-02-17 15:20 | 41.34238 | 28.75521 | 1362 ft | 127 kts | 176° |
| 2026-02-17 15:20 | 41.33371 | 28.75543 | 1214 ft | 124 kts | 176° |
| 2026-02-17 15:20 | 41.32506 | 28.75555 | 1044 ft | 125 kts | 178° |
| 2026-02-17 15:21 | 41.31636 | 28.75572 | 842 ft | 124 kts | 175° |
| 2026-02-17 15:21 | 41.30777 | 28.75585 | 696 ft | 124 kts | 176° |
| 2026-02-17 15:21 | 41.29915 | 28.75598 | 562 ft | 124 kts | 176° |
| 2026-02-17 15:21 | 41.29047 | 28.75617 | 395 ft | 126 kts | 177° |
| 2026-02-17 15:22 | 41.28201 | 28.75642 | 335 ft | 110 kts | 179° |
| 2026-02-17 15:22 | 41.27562 | 28.75648 | 337 ft | 73 kts | 180° |
| 2026-02-17 15:22 | 41.27157 | 28.75651 | 335 ft | 51 kts | 179° |
| 2026-02-17 15:23 | 41.26727 | 28.75590 | 336 ft | 18 kts | 207° |
| 2026-02-17 15:23 | 41.26635 | 28.75496 | 338 ft | 16 kts | 240° |
| 2026-02-17 15:23 | 41.26622 | 28.75344 | 339 ft | 17 kts | 271° |
| 2026-02-17 15:23 | 41.26623 | 28.75243 | 339 ft | 9 kts | 271° |
| 2026-02-17 15:24 | 41.26648 | 28.75165 | 337 ft | 10 kts | 335° |
| 2026-02-17 15:24 | 41.26726 | 28.75153 | 338 ft | 13 kts | 357° |
| 2026-02-17 15:24 | 41.26801 | 28.75140 | 335 ft | 8 kts | 326° |
| 2026-02-17 15:24 | 41.26811 | 28.75098 | 338 ft | 1 kts | 270° |
| 2026-02-17 15:25 | 41.26811 | 28.75090 | 340 ft | 1 kts | 271° |
| 2026-02-17 15:25 | 41.26811 | 28.75065 | 337 ft | 4 kts | 271° |
| 2026-02-17 15:25 | 41.26811 | 28.75038 | 335 ft | 1 kts | 269° |